Time;durP1;ratioP1;P1;durP2;ratioP2;P2;SDS_P1;SDS_P2;PMS_P1;PMS_P2;Temp;Humidity;BMP_temperature;BMP_pressure;BME280_temperature;BME280_humidity;BME280_pressure;Samples;Min_cycle;Max_cycle;Signal;HPM_P1;HPM_P2
2021/04/21 00:00:23;;;;;;;0.75;0.60;;;6.60;99.90;;;6.92;100.00;-20870.63;5085265;28;20215;-71
2021/04/21 00:02:53;;;;;;;2.58;1.08;;;6.60;99.90;;;6.88;100.00;-20869.38;5074423;28;20262;-71
2021/04/21 00:05:23;;;;;;;0.70;0.63;;;6.70;99.90;;;6.91;100.00;-20870.22;5088581;28;20177;-71
2021/04/21 00:07:52;;;;;;;0.70;0.60;;;6.60;99.90;;;6.85;100.00;-20868.53;5094205;28;20629;-71
2021/04/21 00:10:20;;;;;;;0.70;0.60;;;6.40;99.90;;;6.84;100.00;-20868.41;5094573;28;20180;-71
2021/04/21 00:12:49;;;;;;;0.80;0.70;;;6.50;99.90;;;6.83;100.00;-20868.00;5093587;28;20217;-72
2021/04/21 00:15:22;;;;;;;0.70;0.60;;;6.50;99.90;;;7.00;100.00;-20872.72;5094039;28;20209;-71
2021/04/21 00:17:57;;;;;;;0.70;0.70;;;6.50;99.90;;;7.09;100.00;-20875.22;5094001;28;20172;-71
2021/04/21 00:20:25;;;;;;;0.70;0.60;;;6.50;99.90;;;6.98;100.00;-20872.16;5086516;28;20618;-72
2021/04/21 00:22:57;;;;;;;0.70;0.60;;;6.60;99.90;;;6.94;100.00;-20871.19;5072156;28;20215;-72
2021/04/21 00:25:25;;;;;;;0.70;0.60;;;6.50;99.90;;;6.86;100.00;-20868.81;5080315;28;20223;-72
2021/04/21 00:27:54;;;;;;;0.75;0.70;;;6.50;99.90;;;6.80;100.00;-20867.16;5093712;28;20262;-72
2021/04/21 00:30:24;;;;;;;0.70;0.60;;;6.40;99.90;;;6.70;100.00;-20864.66;5084119;28;20190;-72
2021/04/21 00:32:54;;;;;;;0.70;0.60;;;6.40;99.90;;;6.67;100.00;-20863.69;5073747;28;20173;-72
2021/04/21 00:35:25;;;;;;;0.70;0.60;;;6.30;99.90;;;6.65;100.00;-20863.25;5088700;28;20192;-71
2021/04/21 00:37:56;;;;;;;0.70;0.60;;;6.30;99.90;;;6.63;100.00;-20862.72;5094037;28;20202;-71
2021/04/21 00:40:40;;;;;;;0.70;0.60;;;6.20;99.90;;;6.61;100.00;-20862.16;5092213;28;20188;-71
2021/04/21 00:43:20;;;;;;;0.80;0.70;;;6.20;99.90;;;6.66;100.00;-20863.53;5092088;28;20246;-71
2021/04/21 00:45:54;;;;;;;0.80;0.70;;;6.20;99.90;;;6.56;100.00;-20860.78;5109616;28;20195;-71
2021/04/21 00:48:38;;;;;;;0.98;0.90;;;6.30;99.90;;;6.50;100.00;-20859.25;5094318;28;20252;-70
2021/04/21 00:51:12;;;;;;;0.80;0.80;;;6.20;99.90;;;6.42;100.00;-20857.00;5093041;28;20724;-71
2021/04/21 00:53:43;;;;;;;1.00;0.90;;;6.10;99.90;;;6.37;100.00;-20855.63;5073825;28;20188;-71
2021/04/21 00:56:31;;;;;;;0.80;0.73;;;5.90;99.90;;;6.54;100.00;-20860.34;5072443;28;20212;-71
2021/04/21 00:59:08;;;;;;;0.70;0.60;;;6.00;99.90;;;6.57;100.00;-20861.03;5077219;28;20218;-71
2021/04/21 01:01:37;;;;;;;0.70;0.70;;;6.00;99.90;;;6.62;100.00;-20862.28;5088848;28;20195;-71
2021/04/21 01:04:06;;;;;;;0.70;0.60;;;6.10;99.90;;;6.60;100.00;-20861.88;5057098;28;20196;-71
2021/04/21 01:06:41;;;;;;;0.70;0.60;;;6.10;99.90;;;6.61;100.00;-20862.16;5088802;28;20266;-71
2021/04/21 01:09:12;;;;;;;4.03;1.92;;;6.20;99.90;;;6.49;100.00;-20858.97;5084840;28;20200;-71
2021/04/21 01:11:43;;;;;;;0.80;0.80;;;6.10;99.90;;;6.47;100.00;-20858.25;5092129;28;20212;-71
2021/04/21 01:14:15;;;;;;;0.80;0.70;;;6.00;99.90;;;6.39;100.00;-20856.03;5091985;28;20199;-71
2021/04/21 01:16:45;;;;;;;0.80;0.70;;;5.90;99.90;;;6.31;100.00;-20853.97;5075056;28;20223;-71
2021/04/21 01:19:20;;;;;;;1.00;0.90;;;5.90;99.90;;;6.28;100.00;-20853.25;5093219;28;20212;-70
2021/04/21 01:21:52;;;;;;;1.08;0.98;;;5.90;99.90;;;6.23;100.00;-20851.88;5075621;28;20536;-70
2021/04/21 01:24:26;;;;;;;0.75;0.60;;;5.90;99.90;;;6.34;100.00;-20854.66;5080836;28;20645;-71
2021/04/21 01:27:05;;;;;;;0.73;0.63;;;5.90;99.90;;;6.29;100.00;-20853.41;5079723;28;20544;-71
2021/04/21 01:29:36;;;;;;;0.70;0.60;;;5.90;99.90;;;6.23;100.00;-20851.88;5077037;28;20196;-71
2021/04/21 01:32:12;;;;;;;0.70;0.60;;;5.80;99.90;;;6.26;100.00;-20852.72;5075417;28;20185;-70
2021/04/21 01:34:43;;;;;;;1.00;0.90;;;5.80;99.90;;;6.29;100.00;-20853.41;5089960;28;20176;-70
2021/04/21 01:37:18;;;;;;;0.70;0.60;;;5.80;99.90;;;6.22;100.00;-20851.59;5084910;28;20180;-70
2021/04/21 01:39:51;;;;;;;0.70;0.60;;;5.80;99.90;;;6.18;100.00;-20850.47;5076816;28;20177;-70
2021/04/21 01:42:19;;;;;;;1.45;1.35;;;5.80;99.90;;;6.16;100.00;-20849.78;5076905;28;20571;-70
2021/04/21 01:44:50;;;;;;;0.70;0.70;;;5.70;99.90;;;6.16;100.00;-20849.94;5075992;28;20219;-70
2021/04/21 01:47:22;;;;;;;0.70;0.60;;;5.80;99.90;;;6.17;100.00;-20850.06;5082727;28;20188;-70
2021/04/21 01:49:59;;;;;;;0.70;0.60;;;5.80;99.90;;;6.20;100.00;-20851.03;5085729;28;20200;-71
2021/04/21 01:52:47;;;;;;;0.70;0.60;;;5.70;99.90;;;6.21;100.00;-20851.31;5076296;28;20542;-71
2021/04/21 01:55:48;;;;;;;0.80;0.70;;;5.70;99.90;;;6.20;100.00;-20850.91;5058684;28;20641;-70
2021/04/21 01:58:31;;;;;;;0.70;0.60;;;5.80;99.90;;;6.24;100.00;-20852.16;5076313;28;20211;-70
2021/04/21 02:01:05;;;;;;;0.80;0.80;;;5.70;99.90;;;6.21;100.00;-20851.31;5076196;28;20195;-71
2021/04/21 02:03:36;;;;;;;0.70;0.60;;;5.80;99.90;;;6.22;100.00;-20851.44;5075737;28;20200;-70
2021/04/21 02:06:39;;;;;;;1.70;0.93;;;5.70;99.90;;;6.25;100.00;-20852.41;5075595;28;20267;-71
2021/04/21 02:09:44;;;;;;;0.70;0.60;;;5.70;99.90;;;6.27;100.00;-20852.97;5058042;28;20199;-71
2021/04/21 02:12:27;;;;;;;0.70;0.60;;;5.80;99.90;;;6.38;100.00;-20855.75;5067452;28;20226;-71
2021/04/21 02:15:02;;;;;;;0.70;0.60;;;5.80;99.90;;;6.40;100.00;-20856.31;5094992;28;20212;-70
2021/04/21 02:17:43;;;;;;;0.80;0.70;;;5.90;99.90;;;6.40;100.00;-20856.47;5095066;28;20199;-70
2021/04/21 02:20:21;;;;;;;0.70;0.52;;;5.90;99.90;;;6.42;100.00;-20856.88;5087755;28;20181;-71
2021/04/21 02:22:58;;;;;;;0.70;0.50;;;5.90;99.90;;;6.37;100.00;-20855.47;5096140;28;20196;-71
2021/04/21 02:25:39;;;;;;;0.70;0.60;;;5.90;99.90;;;6.31;100.00;-20853.97;5096246;28;20192;-71
2021/04/21 02:28:28;;;;;;;0.70;0.70;;;5.80;99.90;;;6.23;100.00;-20851.72;5096043;28;20212;-70
2021/04/21 02:31:08;;;;;;;0.70;0.60;;;5.80;99.90;;;6.18;100.00;-20850.47;5081488;28;20284;-70
2021/04/21 02:33:43;;;;;;;0.70;0.60;;;5.80;99.90;;;6.19;100.00;-20850.75;5111455;28;20177;-70
2021/04/21 02:36:21;;;;;;;0.70;0.60;;;5.70;99.90;;;6.10;100.00;-20848.25;5089665;28;20733;-71
2021/04/21 02:38:56;;;;;;;0.82;0.82;;;5.60;99.90;;;6.06;100.00;-20847.13;5076803;28;20629;-71
2021/04/21 02:41:38;;;;;;;0.70;0.60;;;5.60;99.90;;;6.10;100.00;-20848.25;5095718;28;20173;-71
2021/04/21 02:44:16;;;;;;;0.70;0.60;;;5.60;99.90;;;6.05;100.00;-20846.88;5090369;28;20244;-71
2021/04/21 02:46:52;;;;;;;0.70;0.60;;;5.60;99.90;;;6.08;100.00;-20847.69;5079314;28;20227;-71
2021/04/21 02:49:54;;;;;;;0.70;0.60;;;5.60;99.90;;;6.23;100.00;-20851.88;5075477;28;20184;-70
2021/04/21 02:52:35;;;;;;;0.75;0.70;;;5.60;99.90;;;6.31;100.00;-20853.97;5075573;28;20575;-70
2021/04/21 02:55:26;;;;;;;0.70;0.60;;;5.70;99.90;;;6.21;100.00;-20851.31;5094071;28;20207;-70
2021/04/21 02:58:07;;;;;;;1.00;0.90;;;5.70;99.90;;;6.17;100.00;-20850.06;5095219;28;20212;-70
2021/04/21 03:00:43;;;;;;;0.70;0.60;;;5.60;99.90;;;6.22;100.00;-20851.59;5087524;28;20545;-70
2021/04/21 03:03:20;;;;;;;0.70;0.60;;;5.70;99.90;;;6.26;100.00;-20852.56;5080404;28;20207;-70
2021/04/21 03:05:57;;;;;;;0.70;0.60;;;5.80;99.90;;;6.31;100.00;-20853.81;5085779;28;20191;-71
2021/04/21 03:08:31;;;;;;;0.70;0.60;;;5.80;99.90;;;6.12;100.00;-20848.81;5093830;28;20225;-71
2021/04/21 03:11:05;;;;;;;1.60;0.95;;;5.70;99.90;;;6.04;100.00;-20846.72;5107681;28;20544;-70
2021/04/21 03:13:36;;;;;;;0.73;0.63;;;5.50;99.90;;;5.93;100.00;-20843.66;5095221;28;20208;-70
2021/04/21 03:16:09;;;;;;;0.70;0.60;;;5.40;99.90;;;6.02;100.00;-20846.16;5095230;28;20193;-70
2021/04/21 03:18:40;;;;;;;0.70;0.70;;;5.40;99.90;;;5.93;100.00;-20843.66;5086430;28;20282;-71
2021/04/21 03:21:16;;;;;;;0.70;0.60;;;5.40;99.90;;;5.94;100.00;-20843.94;5074902;28;20207;-71
2021/04/21 03:23:46;;;;;;;1.35;1.02;;;5.40;99.90;;;5.97;100.00;-20844.63;5075025;28;20180;-71
2021/04/21 03:26:14;;;;;;;0.70;0.70;;;5.40;99.90;;;6.00;100.00;-20845.63;5073361;28;20243;-71
2021/04/21 03:28:46;;;;;;;0.70;0.60;;;5.40;99.90;;;5.93;100.00;-20843.53;5074644;28;20208;-70
2021/04/21 03:31:16;;;;;;;0.70;0.60;;;5.40;99.90;;;5.86;100.00;-20841.56;5074898;28;20200;-71
2021/04/21 03:33:48;;;;;;;0.70;0.60;;;5.40;99.90;;;5.87;100.00;-20841.84;5082505;28;20826;-71
2021/04/21 03:36:19;;;;;;;0.70;0.60;;;5.40;99.90;;;5.88;100.00;-20842.13;5089493;28;20233;-71
2021/04/21 03:38:47;;;;;;;0.70;0.70;;;5.40;99.90;;;5.88;100.00;-20842.28;5110205;28;20246;-71
2021/04/21 03:41:15;;;;;;;0.70;0.60;;;5.40;99.90;;;5.92;100.00;-20843.38;5094695;28;20195;-71
2021/04/21 03:43:43;;;;;;;0.70;0.60;;;5.40;99.90;;;5.93;100.00;-20843.53;5094657;28;20691;-71
2021/04/21 03:46:11;;;;;;;0.70;0.60;;;5.40;99.90;;;5.90;100.00;-20842.69;5094372;28;20184;-70
2021/04/21 03:48:41;;;;;;;1.20;1.02;;;5.30;99.90;;;5.94;100.00;-20843.81;5094364;28;20242;-70
2021/04/21 03:51:09;;;;;;;3.75;3.53;;;5.30;99.90;;;5.97;100.00;-20844.63;5079944;28;20178;-71
2021/04/21 03:53:39;;;;;;;0.70;0.70;;;5.40;99.90;;;6.01;100.00;-20845.75;5092211;28;20267;-71
2021/04/21 03:56:11;;;;;;;0.70;0.60;;;5.40;99.90;;;6.18;100.00;-20850.47;5094090;28;20208;-71
2021/04/21 03:58:40;;;;;;;0.93;0.93;;;5.50;99.90;;;6.29;100.00;-20853.41;5087964;28;20608;-71
2021/04/21 04:01:14;;;;;;;0.70;0.50;;;5.60;99.90;;;6.31;100.00;-20853.81;5085282;28;20201;-71
2021/04/21 04:03:46;;;;;;;0.70;0.60;;;5.70;99.90;;;6.29;100.00;-20853.41;5075955;28;20192;-71
2021/04/21 04:06:17;;;;;;;0.70;0.60;;;5.70;99.90;;;6.29;100.00;-20853.41;5093894;28;20226;-71
2021/04/21 04:08:50;;;;;;;0.70;0.60;;;5.70;99.90;;;6.27;100.00;-20852.97;5093651;28;20176;-70
2021/04/21 04:11:24;;;;;;;0.70;0.60;;;5.70;99.90;;;6.26;100.00;-20852.72;5109935;28;20255;-70
2021/04/21 04:14:01;;;;;;;1.42;1.13;;;5.70;99.90;;;6.27;100.00;-20852.84;5094020;28;20172;-70
2021/04/21 04:16:31;;;;;;;0.70;0.60;;;5.70;99.90;;;6.38;100.00;-20855.75;5089160;28;20196;-70
2021/04/21 04:19:01;;;;;;;0.70;0.60;;;5.70;99.90;;;6.41;100.00;-20856.59;5072272;28;20279;-71
2021/04/21 04:21:33;;;;;;;0.80;0.80;;;5.80;99.90;;;6.44;100.00;-20857.44;5088114;28;20250;-71
2021/04/21 04:24:06;;;;;;;0.70;0.60;;;5.80;99.90;;;6.49;100.00;-20858.81;5093773;28;20196;-70
2021/04/21 04:26:37;;;;;;;0.70;0.70;;;5.80;99.90;;;6.45;100.00;-20857.72;5109427;28;20704;-70
2021/04/21 04:29:04;;;;;;;0.70;0.60;;;5.90;99.90;;;6.39;100.00;-20856.03;5071014;28;20200;-70
2021/04/21 04:31:34;;;;;;;0.70;0.70;;;5.80;99.90;;;6.33;100.00;-20854.50;5073985;28;20633;-70
2021/04/21 04:34:03;;;;;;;0.82;0.82;;;5.70;99.90;;;6.27;100.00;-20852.97;5074506;28;20235;-70
2021/04/21 04:36:32;;;;;;;0.70;0.60;;;5.60;99.90;;;6.28;100.00;-20853.25;5089503;28;20250;-70
2021/04/21 04:39:03;;;;;;;0.80;0.80;;;5.70;99.90;;;6.27;100.00;-20852.97;5092529;28;20205;-71
2021/04/21 04:41:30;;;;;;;0.70;0.55;;;5.70;99.90;;;6.28;100.00;-20853.13;5093819;28;20204;-71
2021/04/21 04:43:58;;;;;;;1.75;1.65;;;5.70;99.90;;;6.26;100.00;-20852.72;5093336;28;20610;-71
2021/04/21 04:46:30;;;;;;;0.70;0.60;;;5.70;99.90;;;6.26;100.00;-20852.72;5093538;28;20229;-70
2021/04/21 04:49:05;;;;;;;0.80;0.73;;;5.70;99.90;;;6.32;100.00;-20854.09;5087833;28;20583;-70
2021/04/21 04:51:37;;;;;;;0.80;0.80;;;5.70;99.90;;;6.40;100.00;-20856.31;5093263;28;20252;-70
2021/04/21 04:54:06;;;;;;;0.70;0.60;;;5.70;99.90;;;6.40;100.00;-20856.31;5093133;28;20255;-71
2021/04/21 04:56:35;;;;;;;0.88;0.77;;;5.70;99.90;;;6.40;100.00;-20856.31;5093244;28;20280;-71
2021/04/21 04:59:05;;;;;;;0.70;0.60;;;5.80;99.90;;;6.40;100.00;-20856.31;5084813;28;20185;-71
2021/04/21 05:01:46;;;;;;;0.70;0.60;;;5.80;99.90;;;6.39;100.00;-20856.03;5073535;28;20575;-71
2021/04/21 05:04:17;;;;;;;0.70;0.60;;;5.80;99.90;;;6.41;100.00;-20856.59;5071502;28;20199;-70
2021/04/21 05:06:51;;;;;;;0.70;0.60;;;5.80;99.90;;;6.41;100.00;-20856.59;5090964;28;20238;-70
2021/04/21 05:09:23;;;;;;;0.80;0.70;;;5.70;99.90;;;6.46;100.00;-20858.00;5089999;28;20545;-70
2021/04/21 05:11:54;;;;;;;0.70;0.60;;;5.80;99.90;;;6.60;100.00;-20861.88;5093212;28;20212;-70
2021/04/21 05:14:24;;;;;;;0.70;0.60;;;5.90;99.90;;;6.64;100.00;-20862.84;5092412;28;20312;-71
2021/04/21 05:18:00;;;;;;;0.70;0.60;;;6.00;99.90;;;6.67;100.00;-20863.81;5077615;28;20201;-70
2021/04/21 05:21:28;;;;;;;0.70;0.60;;;6.00;99.90;;;6.82;100.00;-20867.72;5090462;28;20181;-70
2021/04/21 05:25:05;;;;;;;0.82;0.82;;;6.10;99.90;;;6.92;100.00;-20870.63;5056647;28;20216;-70
2021/04/21 05:28:23;;;;;;;0.70;0.60;;;6.20;99.90;;;7.05;100.00;-20873.97;5079488;28;20602;-70
2021/04/21 05:31:25;;;;;;;0.70;0.60;;;6.30;99.90;;;7.11;100.00;-20875.63;5063248;28;20259;-70
2021/04/21 05:34:51;;;;;;;0.70;0.60;;;6.40;99.90;;;7.27;100.00;-20880.06;5087996;28;20217;-70
2021/04/21 05:38:09;;;;;;;0.70;0.60;;;6.50;99.90;;;7.39;100.00;-20883.41;5084840;28;20217;-70
2021/04/21 05:41:08;;;;;;;0.70;0.60;;;6.60;99.90;;;7.57;100.00;-20888.13;5086417;28;20254;-70
2021/04/21 05:44:54;;;;;;;0.70;0.50;;;6.70;99.90;;;7.75;100.00;-20893.25;5089192;28;20215;-71
2021/04/21 05:48:21;;;;;;;1.17;0.80;;;7.00;99.90;;;8.02;100.00;-20900.47;5091341;28;20426;-71
2021/04/21 05:51:38;;;;;;;0.70;0.60;;;7.10;99.90;;;8.19;100.00;-20905.19;5075672;28;20451;-70
2021/04/21 05:55:04;;;;;;;0.70;0.60;;;7.30;99.90;;;8.34;100.00;-20909.22;5089882;28;21133;-70
2021/04/21 05:58:20;;;;;;;1.00;0.90;;;7.40;99.90;;;8.55;100.00;-20914.91;5074773;28;20461;-70
2021/04/21 06:01:26;;;;;;;0.70;0.60;;;7.60;99.90;;;8.70;100.00;-20918.94;5071426;28;20435;-71
2021/04/21 06:03:56;;;;;;;1.63;1.53;;;7.80;99.90;;;8.80;100.00;-20921.72;5090939;28;20486;-70
2021/04/21 06:06:24;;;;;;;0.80;0.60;;;7.90;99.90;;;8.97;100.00;-20926.28;5077664;28;20873;-70
2021/04/21 06:08:51;;;;;;;0.70;0.60;;;8.00;99.90;;;9.12;100.00;-20930.44;5080477;28;20461;-70
2021/04/21 06:11:23;;;;;;;0.70;0.60;;;8.20;99.90;;;9.27;100.00;-20934.44;5095159;28;20995;-70
2021/04/21 06:13:54;;;;;;;0.70;0.60;;;8.30;99.90;;;9.50;100.00;-20940.53;5080695;28;20424;-70
2021/04/21 06:16:23;;;;;;;0.97;0.93;;;8.50;99.90;;;9.70;100.00;-20945.94;5076132;28;21016;-70
2021/04/21 06:18:54;;;;;;;1.00;0.80;;;8.60;99.90;;;9.90;100.00;-20951.50;5076054;28;20928;-70
2021/04/21 06:21:23;;;;;;;0.70;0.60;;;8.80;99.90;;;10.11;100.00;-20957.31;5075954;28;20434;-71
2021/04/21 06:23:55;;;;;;;0.70;0.60;;;9.00;99.90;;;10.24;100.00;-20960.63;5079553;28;20422;-70
2021/04/21 06:26:25;;;;;;;0.70;0.60;;;9.10;99.90;;;10.44;100.00;-20966.16;5094544;28;20445;-71
2021/04/21 06:29:07;;;;;;;0.80;0.60;;;9.20;99.90;;;10.40;100.00;-20965.06;5086324;28;20443;-70
2021/04/21 06:31:39;;;;;;;0.70;0.60;;;9.40;99.90;;;10.48;100.00;-20967.13;5075626;28;20414;-71
2021/04/21 06:34:08;;;;;;;1.00;0.80;;;9.50;99.90;;;10.52;100.00;-20968.38;5086240;28;20930;-69
2021/04/21 06:36:41;;;;;;;0.70;0.60;;;9.50;99.90;;;10.63;100.00;-20971.41;5094507;28;20808;-70
2021/04/21 06:39:33;;;;;;;1.10;1.07;;;9.50;99.90;;;10.67;100.00;-20972.25;5095651;28;20401;-70
2021/04/21 06:42:30;;;;;;;0.70;0.60;;;9.60;99.90;;;10.74;100.00;-20974.19;5095907;28;20437;-71
2021/04/21 06:44:58;;;;;;;0.70;0.60;;;9.70;99.90;;;10.97;100.00;-20980.41;5090805;28;20964;-71
2021/04/21 06:47:28;;;;;;;0.70;0.57;;;9.80;99.90;;;10.99;100.00;-20981.09;5090836;28;20455;-70
2021/04/21 06:50:00;;;;;;;0.80;0.80;;;9.80;99.90;;;11.13;100.00;-20984.97;5092562;28;20425;-70
2021/04/21 06:52:35;;;;;;;0.70;0.50;;;10.00;99.90;;;11.25;100.00;-20988.00;5074048;28;20539;-69
2021/04/21 06:55:05;;;;;;;0.80;0.70;;;10.00;99.90;;;11.07;100.00;-20983.31;5076386;28;20429;-70
2021/04/21 06:57:33;;;;;;;0.70;0.60;;;10.00;99.90;;;11.27;100.00;-20988.56;5090463;28;20894;-70
2021/04/21 07:00:10;;;;;;;0.80;0.70;;;10.10;99.90;;;11.45;100.00;-20993.53;5086468;28;20430;-70
2021/04/21 07:02:41;;;;;;;1.53;1.17;;;10.10;99.90;;;11.37;100.00;-20991.31;5074909;28;20411;-70
2021/04/21 07:05:31;;;;;;;0.80;0.80;;;10.10;99.90;;;11.66;100.00;-20999.22;5079683;28;20475;-70
2021/04/21 07:08:09;;;;;;;1.03;0.93;;;10.20;99.90;;;11.53;100.00;-20995.75;5092943;28;20932;-70
2021/04/21 07:10:46;;;;;;;0.80;0.70;;;10.30;99.90;;;11.65;100.00;-20998.78;5094377;28;20813;-70
2021/04/21 07:13:22;;;;;;;0.70;0.60;;;10.50;99.90;;;11.97;100.00;-21007.63;5094732;28;20844;-70
2021/04/21 07:15:50;;;;;;;0.77;0.77;;;10.50;99.90;;;11.93;100.00;-21006.53;5091609;28;20457;-70
2021/04/21 07:18:22;;;;;;;0.70;0.60;;;10.50;99.90;;;11.75;100.00;-21001.56;5084679;28;20819;-70
2021/04/21 07:20:49;;;;;;;0.70;0.60;;;10.60;99.90;;;11.71;100.00;-21000.44;5087765;28;20430;-70
2021/04/21 07:23:20;;;;;;;0.80;0.80;;;10.50;99.90;;;11.87;100.00;-21004.88;5094741;28;20446;-70
2021/04/21 07:25:50;;;;;;;0.70;0.60;;;10.60;99.90;;;11.97;100.00;-21007.63;5094780;28;20952;-70
2021/04/21 07:28:19;;;;;;;0.70;0.60;;;10.70;99.90;;;11.95;100.00;-21006.94;5092912;28;20531;-70
2021/04/21 07:30:47;;;;;;;0.80;0.80;;;10.70;99.90;;;12.52;100.00;-21022.53;5080558;28;20426;-70
2021/04/21 07:33:37;;;;;;;0.70;0.60;;;10.60;99.90;;;12.84;100.00;-21031.09;5079798;28;20427;-70
2021/04/21 07:36:11;;;;;;;1.20;1.10;;;10.50;99.90;;;12.86;100.00;-21031.66;5092900;28;20450;-71
2021/04/21 07:38:42;;;;;;;1.70;1.43;;;10.50;99.90;;;12.45;100.00;-21020.63;5085562;28;20434;-70
2021/04/21 07:41:12;;;;;;;4.67;1.00;;;10.70;99.90;;;12.55;100.00;-21023.38;5074645;28;20820;-71
2021/04/21 07:43:43;;;;;;;0.70;0.60;;;10.80;99.90;;;12.38;100.00;-21018.53;5075780;28;20485;-70
2021/04/21 07:46:20;;;;;;;0.73;0.70;;;10.90;99.90;;;12.12;100.00;-21011.50;5094448;28;20820;-70
2021/04/21 07:48:50;;;;;;;0.70;0.60;;;10.90;99.90;;;12.19;100.00;-21013.44;5094278;28;20448;-70
2021/04/21 07:51:43;;;;;;;0.70;0.60;;;10.90;99.90;;;12.11;100.00;-21011.22;5080935;28;20467;-70
2021/04/21 07:54:21;;;;;;;5.77;1.90;;;11.00;99.90;;;12.16;100.00;-21012.59;5090222;28;20422;-70
2021/04/21 07:57:18;;;;;;;0.70;0.60;;;11.00;99.90;;;12.77;100.00;-21029.16;5081466;28;20473;-70
2021/04/21 07:59:47;;;;;;;0.80;0.77;;;11.00;99.90;;;12.50;100.00;-21022.00;5073860;28;20430;-70
2021/04/21 08:02:20;;;;;;;0.80;0.70;;;11.10;99.90;;;12.49;100.00;-21021.72;5073885;28;20418;-70
2021/04/21 08:04:55;;;;;;;0.80;0.80;;;11.30;99.90;;;12.92;100.00;-21033.31;5081895;28;20441;-70
2021/04/21 08:07:40;;;;;;;1.10;0.80;;;11.60;99.90;;;13.11;100.00;-21038.28;5089464;28;20504;-71
2021/04/21 08:10:24;;;;;;;1.03;0.93;;;11.90;99.90;;;13.80;100.00;-21057.03;5097484;28;20433;-71
2021/04/21 08:12:53;;;;;;;3.07;1.97;;;12.20;99.90;;;13.97;100.00;-21061.69;5092487;28;20509;-71
2021/04/21 08:15:28;;;;;;;0.80;0.73;;;12.60;99.90;;;13.88;100.00;-21059.22;5093986;28;20498;-70
2021/04/21 08:18:00;;;;;;;0.80;0.70;;;12.80;99.90;;;13.89;100.00;-21059.50;5092948;28;20446;-71
2021/04/21 08:20:34;;;;;;;2.50;0.80;;;12.80;99.90;;;14.76;100.00;-21082.91;5086770;28;20513;-71
2021/04/21 08:23:22;;;;;;;0.87;0.87;;;13.00;99.90;;;15.60;100.00;-21105.47;5081618;28;20434;-70
2021/04/21 08:25:49;;;;;;;1.50;1.30;;;13.70;99.90;;;16.20;100.00;-21121.69;5074208;28;20485;-70
2021/04/21 08:28:19;;;;;;;1.80;1.70;;;14.50;99.90;;;16.99;100.00;-21142.97;5072830;28;20458;-70
2021/04/21 08:30:53;;;;;;;3.33;2.70;;;15.20;99.90;;;18.34;100.00;-21179.28;5081110;28;20453;-72
2021/04/21 08:33:20;;;;;;;0.73;0.63;;;15.70;99.90;;;18.82;100.00;-21192.03;5078650;28;20439;-71
2021/04/21 08:35:49;;;;;;;0.90;0.80;;;15.70;99.90;;;19.08;100.00;-21199.00;5092789;28;20548;-70
2021/04/21 08:38:16;;;;;;;1.43;1.33;;;16.30;99.90;;;18.23;100.00;-21176.13;5093752;28;20590;-70
2021/04/21 08:40:43;;;;;;;1.50;1.40;;;16.30;99.90;;;19.41;100.00;-21207.75;5094502;28;20438;-71
2021/04/21 08:43:15;;;;;;;1.00;0.90;;;15.90;99.90;;;21.32;100.00;-21258.84;5092441;28;20456;-71
2021/04/21 08:45:42;;;;;;;1.07;0.97;;;16.30;99.90;;;20.09;100.00;-21225.94;5092528;28;20409;-71
2021/04/21 08:48:13;;;;;;;1.10;0.90;;;16.90;99.90;;;19.73;100.00;-21216.50;5078939;28;20816;-70
2021/04/21 08:50:41;;;;;;;0.87;0.60;;;17.10;99.90;;;19.79;100.00;-21218.16;5080944;28;20430;-70
2021/04/21 08:53:13;;;;;;;1.20;1.10;;;16.80;99.90;;;19.81;100.00;-21218.41;5091358;28;20446;-70
2021/04/21 08:55:40;;;;;;;2.60;2.40;;;16.90;99.90;;;18.58;100.00;-21185.72;5088746;28;20397;-70
2021/04/21 08:58:09;;;;;;;1.23;1.13;;;16.60;99.90;;;19.40;100.00;-21207.63;5074242;28;20466;-71
2021/04/21 09:00:39;;;;;;;1.63;1.53;;;16.20;99.90;;;18.81;100.00;-21191.88;5075264;28;20423;-71
2021/04/21 09:03:07;;;;;;;1.27;1.17;;;16.10;99.90;;;17.84;100.00;-21165.72;5084808;28;20434;-71
2021/04/21 09:05:39;;;;;;;0.80;0.80;;;16.10;99.90;;;17.96;100.00;-21169.00;5074781;28;20764;-70
2021/04/21 09:08:10;;;;;;;1.53;1.43;;;16.00;99.90;;;17.50;100.00;-21156.69;5083493;28;20439;-72
2021/04/21 09:10:39;;;;;;;2.50;1.53;;;16.00;99.90;;;17.40;100.00;-21153.94;5093313;28;20415;-71
2021/04/21 09:13:08;;;;;;;1.03;0.93;;;15.70;99.90;;;17.91;100.00;-21167.50;5093031;28;20421;-71
2021/04/21 09:15:38;;;;;;;0.87;0.87;;;15.70;99.90;;;18.19;100.00;-21175.03;5092376;28;20405;-71
2021/04/21 09:18:05;;;;;;;0.97;0.90;;;15.70;99.90;;;18.15;100.00;-21173.94;5081749;28;20423;-71
2021/04/21 09:20:32;;;;;;;0.80;0.70;;;15.50;99.90;;;17.30;100.00;-21151.31;5087506;28;20780;-71
2021/04/21 09:23:11;;;;;;;2.00;1.87;;;15.80;99.90;;;17.38;100.00;-21153.38;5078625;28;20404;-70
2021/04/21 09:25:40;;;;;;;1.00;0.90;;;15.90;99.90;;;18.37;100.00;-21179.84;5089702;28;20454;-70
2021/04/21 09:28:08;;;;;;;1.27;1.17;;;15.90;99.90;;;19.38;100.00;-21206.94;5083177;28;20442;-71
2021/04/21 09:30:40;;;;;;;1.70;1.57;;;15.70;99.90;;;18.85;100.00;-21192.84;5081436;28;20419;-70
2021/04/21 09:33:08;;;;;;;0.90;0.90;;;15.70;99.90;;;19.44;100.00;-21208.56;5082102;28;20397;-70
2021/04/21 09:35:40;;;;;;;1.03;0.93;;;15.50;99.90;;;19.49;100.00;-21210.09;5087669;28;20473;-71
2021/04/21 09:38:10;;;;;;;1.33;1.23;;;15.60;99.90;;;19.35;100.00;-21206.25;5082910;28;20425;-71
2021/04/21 09:40:45;;;;;;;1.03;0.93;;;15.60;99.90;;;19.38;100.00;-21206.94;5076902;28;20453;-71
2021/04/21 09:43:18;;;;;;;1.00;0.90;;;15.70;99.90;;;19.58;100.00;-21212.41;5093441;28;20437;-71
2021/04/21 09:45:49;;;;;;;0.80;0.70;;;15.80;99.90;;;19.48;100.00;-21209.66;5095442;28;20911;-71
2021/04/21 09:48:18;;;;;;;0.77;0.63;;;15.80;99.90;;;19.66;100.00;-21214.59;5096336;28;20483;-70
2021/04/21 09:51:00;;;;;;;1.23;1.13;;;16.00;99.90;;;19.83;100.00;-21218.97;5084501;28;20445;-69
2021/04/21 09:53:32;;;;;;;1.10;1.00;;;16.00;99.90;;;19.99;100.00;-21223.34;5091904;28;20426;-69
2021/04/21 09:56:12;;;;;;;1.13;1.03;;;15.90;99.90;;;19.56;100.00;-21211.84;5088460;28;20477;-70
2021/04/21 09:58:43;;;;;;;1.33;1.03;;;15.80;99.90;;;19.23;100.00;-21203.09;5087919;28;20524;-70
2021/04/21 10:01:19;;;;;;;0.80;0.80;;;16.30;99.90;;;20.20;100.00;-21228.94;5088129;28;20414;-69
2021/04/21 10:03:47;;;;;;;3.43;1.87;;;16.40;99.90;;;19.89;100.00;-21220.63;5086760;28;20444;-70
2021/04/21 10:06:23;;;;;;;0.83;0.80;;;16.20;99.90;;;20.41;100.00;-21234.69;5082373;28;20526;-69
2021/04/21 10:08:53;;;;;;;1.20;1.10;;;16.20;99.90;;;20.44;100.00;-21235.38;5090665;28;20463;-72
2021/04/21 10:11:20;;;;;;;0.80;0.70;;;16.30;99.90;;;20.41;100.00;-21234.53;5075681;28;20442;-73
2021/04/21 10:13:51;;;;;;;1.40;1.30;;;16.70;99.90;;;20.78;100.00;-21244.50;5078178;28;20382;-71
2021/04/21 10:16:20;;;;;;;3.17;2.30;;;16.70;99.90;;;21.19;100.00;-21255.56;5095931;28;20453;-71
2021/04/21 10:18:48;;;;;;;0.80;0.60;;;16.50;99.90;;;21.60;100.00;-21266.47;5092228;28;20429;-71
2021/04/21 10:21:18;;;;;;;1.67;1.57;;;17.00;99.90;;;20.98;100.00;-21249.97;5085690;28;20438;-71
2021/04/21 10:23:48;;;;;;;1.23;1.13;;;17.30;99.90;;;21.45;100.00;-21262.53;5096114;28;20407;-71
2021/04/21 10:26:17;;;;;;;1.00;0.90;;;17.50;99.90;;;22.74;100.00;-21296.72;5082733;28;20439;-71
2021/04/21 10:28:46;;;;;;;1.17;0.93;;;18.20;98.40;;;23.62;100.00;-21320.38;5091479;28;20417;-72
2021/04/21 10:31:17;;;;;;;1.93;1.60;;;18.30;96.10;;;23.49;100.00;-21316.72;5092672;28;20432;-71
2021/04/21 10:33:48;;;;;;;1.77;1.07;;;18.40;96.60;;;23.84;100.00;-21326.09;5096056;28;20988;-71
2021/04/21 10:36:16;;;;;;;1.13;1.03;;;18.50;92.90;;;23.76;100.00;-21324.06;5081424;28;20455;-71
2021/04/21 10:38:44;;;;;;;1.47;1.37;;;18.10;91.60;;;23.05;100.00;-21305.16;5074478;28;20443;-71
2021/04/21 10:41:28;;;;;;;1.00;0.90;;;18.70;94.00;;;24.05;100.00;-21331.81;5075373;28;20466;-70
2021/04/21 10:44:15;;;;;;;1.93;1.73;;;18.40;90.70;;;22.52;100.00;-21291.00;5082250;28;20434;-71
2021/04/21 10:47:10;;;;;;;0.90;0.80;;;19.40;90.50;;;22.48;100.00;-21289.91;5075442;28;20800;-71
2021/04/21 10:50:05;;;;;;;1.10;1.00;;;19.40;87.30;;;23.39;100.00;-21314.28;5082144;28;20521;-71